sensor_id;sensor_type;location;lat;lon;timestamp;temperature;humidity
9509;DHT22;4792;50.088;8.122;2023-01-09T00:00:00;7.20;99.90
9509;DHT22;4792;50.088;8.122;2023-01-09T00:02:28;7.20;99.90
9509;DHT22;4792;50.088;8.122;2023-01-09T00:04:56;7.20;99.90
9509;DHT22;4792;50.088;8.122;2023-01-09T00:07:24;7.20;99.90
9509;DHT22;4792;50.088;8.122;2023-01-09T00:09:52;7.20;99.90
9509;DHT22;4792;50.088;8.122;2023-01-09T00:12:20;7.20;99.90
9509;DHT22;4792;50.088;8.122;2023-01-09T00:14:48;7.20;99.90
9509;DHT22;4792;50.088;8.122;2023-01-09T00:17:18;7.30;99.90
9509;DHT22;4792;50.088;8.122;2023-01-09T00:19:47;7.20;99.90
9509;DHT22;4792;50.088;8.122;2023-01-09T00:22:15;7.30;99.90
9509;DHT22;4792;50.088;8.122;2023-01-09T00:24:43;7.20;99.90
9509;DHT22;4792;50.088;8.122;2023-01-09T00:27:11;7.20;99.90
9509;DHT22;4792;50.088;8.122;2023-01-09T00:29:40;7.20;99.90
9509;DHT22;4792;50.088;8.122;2023-01-09T00:32:10;7.20;99.90
9509;DHT22;4792;50.088;8.122;2023-01-09T00:34:40;7.20;99.90
9509;DHT22;4792;50.088;8.122;2023-01-09T00:37:09;7.20;99.90
9509;DHT22;4792;50.088;8.122;2023-01-09T00:39:38;7.20;99.90
9509;DHT22;4792;50.088;8.122;2023-01-09T00:42:09;7.20;99.90
9509;DHT22;4792;50.088;8.122;2023-01-09T00:44:41;7.20;99.90
9509;DHT22;4792;50.088;8.122;2023-01-09T00:47:11;7.10;99.90
9509;DHT22;4792;50.088;8.122;2023-01-09T00:49:43;7.20;99.90
9509;DHT22;4792;50.088;8.122;2023-01-09T00:52:12;7.10;99.90
9509;DHT22;4792;50.088;8.122;2023-01-09T00:54:41;7.00;99.90
9509;DHT22;4792;50.088;8.122;2023-01-09T00:57:11;7.00;99.90
9509;DHT22;4792;50.088;8.122;2023-01-09T00:59:40;7.00;99.90
9509;DHT22;4792;50.088;8.122;2023-01-09T01:02:09;6.90;99.90
9509;DHT22;4792;50.088;8.122;2023-01-09T01:04:37;6.90;99.90
9509;DHT22;4792;50.088;8.122;2023-01-09T01:07:24;6.90;99.90
9509;DHT22;4792;50.088;8.122;2023-01-09T01:10:11;6.90;99.90
9509;DHT22;4792;50.088;8.122;2023-01-09T01:12:39;6.90;99.90
9509;DHT22;4792;50.088;8.122;2023-01-09T01:15:08;6.80;99.90
9509;DHT22;4792;50.088;8.122;2023-01-09T01:17:38;6.80;99.90
9509;DHT22;4792;50.088;8.122;2023-01-09T01:20:09;6.80;99.90
9509;DHT22;4792;50.088;8.122;2023-01-09T01:22:39;6.80;99.90
9509;DHT22;4792;50.088;8.122;2023-01-09T01:25:09;6.70;99.90
9509;DHT22;4792;50.088;8.122;2023-01-09T01:27:38;6.70;99.90
9509;DHT22;4792;50.088;8.122;2023-01-09T01:30:08;6.70;99.90
9509;DHT22;4792;50.088;8.122;2023-01-09T01:32:37;6.60;99.90
9509;DHT22;4792;50.088;8.122;2023-01-09T01:35:06;6.50;99.90
9509;DHT22;4792;50.088;8.122;2023-01-09T01:37:36;6.50;99.90
9509;DHT22;4792;50.088;8.122;2023-01-09T01:40:08;6.40;99.90
9509;DHT22;4792;50.088;8.122;2023-01-09T01:42:42;6.40;99.90
9509;DHT22;4792;50.088;8.122;2023-01-09T01:45:13;6.40;99.90
9509;DHT22;4792;50.088;8.122;2023-01-09T01:47:49;6.40;99.90
9509;DHT22;4792;50.088;8.122;2023-01-09T01:50:23;6.40;99.90
9509;DHT22;4792;50.088;8.122;2023-01-09T01:52:55;6.40;99.90
9509;DHT22;4792;50.088;8.122;2023-01-09T01:55:26;6.40;99.90
9509;DHT22;4792;50.088;8.122;2023-01-09T01:57:58;6.40;99.90
9509;DHT22;4792;50.088;8.122;2023-01-09T02:00:36;6.50;99.90
9509;DHT22;4792;50.088;8.122;2023-01-09T02:03:05;6.50;99.90
9509;DHT22;4792;50.088;8.122;2023-01-09T02:05:35;6.50;99.90
9509;DHT22;4792;50.088;8.122;2023-01-09T02:08:06;6.50;99.90
9509;DHT22;4792;50.088;8.122;2023-01-09T02:10:36;6.50;99.90
9509;DHT22;4792;50.088;8.122;2023-01-09T02:13:05;6.40;99.90
9509;DHT22;4792;50.088;8.122;2023-01-09T02:15:51;6.40;99.90
9509;DHT22;4792;50.088;8.122;2023-01-09T02:18:34;6.40;99.90
9509;DHT22;4792;50.088;8.122;2023-01-09T02:21:12;6.40;99.90
9509;DHT22;4792;50.088;8.122;2023-01-09T02:24:14;6.40;99.90
9509;DHT22;4792;50.088;8.122;2023-01-09T02:30:17;6.30;99.90
9509;DHT22;4792;50.088;8.122;2023-01-09T02:32:57;6.30;99.90
9509;DHT22;4792;50.088;8.122;2023-01-09T02:35:42;6.30;99.90
9509;DHT22;4792;50.088;8.122;2023-01-09T02:38:22;6.30;99.90
9509;DHT22;4792;50.088;8.122;2023-01-09T02:40:56;6.30;99.90
9509;DHT22;4792;50.088;8.122;2023-01-09T02:43:27;6.30;99.90
9509;DHT22;4792;50.088;8.122;2023-01-09T02:45:56;6.30;99.90
9509;DHT22;4792;50.088;8.122;2023-01-09T02:48:24;6.20;99.90
9509;DHT22;4792;50.088;8.122;2023-01-09T02:51:04;6.30;99.90
9509;DHT22;4792;50.088;8.122;2023-01-09T02:54:09;6.20;99.90
9509;DHT22;4792;50.088;8.122;2023-01-09T02:56:50;6.30;99.90
9509;DHT22;4792;50.088;8.122;2023-01-09T02:59:28;6.20;99.90
9509;DHT22;4792;50.088;8.122;2023-01-09T03:02:19;6.20;99.90
9509;DHT22;4792;50.088;8.122;2023-01-09T03:05:00;6.20;99.90
9509;DHT22;4792;50.088;8.122;2023-01-09T03:07:35;6.20;99.90
9509;DHT22;4792;50.088;8.122;2023-01-09T03:10:09;6.20;99.90
9509;DHT22;4792;50.088;8.122;2023-01-09T03:12:40;6.20;99.90
9509;DHT22;4792;50.088;8.122;2023-01-09T03:15:11;6.10;99.90
9509;DHT22;4792;50.088;8.122;2023-01-09T03:17:45;6.10;99.90
9509;DHT22;4792;50.088;8.122;2023-01-09T03:20:16;6.20;99.90
9509;DHT22;4792;50.088;8.122;2023-01-09T03:22:52;6.20;99.90
9509;DHT22;4792;50.088;8.122;2023-01-09T03:25:21;6.30;99.90
9509;DHT22;4792;50.088;8.122;2023-01-09T03:27:53;6.20;99.90
9509;DHT22;4792;50.088;8.122;2023-01-09T03:30:22;6.20;99.90
9509;DHT22;4792;50.088;8.122;2023-01-09T03:32:52;6.20;99.90
9509;DHT22;4792;50.088;8.122;2023-01-09T03:35:20;6.20;99.90
9509;DHT22;4792;50.088;8.122;2023-01-09T03:37:48;6.20;99.90
9509;DHT22;4792;50.088;8.122;2023-01-09T03:40:17;6.20;99.90
9509;DHT22;4792;50.088;8.122;2023-01-09T03:42:46;6.10;99.90
9509;DHT22;4792;50.088;8.122;2023-01-09T03:45:14;6.10;99.90
9509;DHT22;4792;50.088;8.122;2023-01-09T03:47:42;6.10;99.90
9509;DHT22;4792;50.088;8.122;2023-01-09T03:50:12;6.10;99.90
9509;DHT22;4792;50.088;8.122;2023-01-09T03:52:40;6.10;99.90
9509;DHT22;4792;50.088;8.122;2023-01-09T03:55:08;6.10;99.90
9509;DHT22;4792;50.088;8.122;2023-01-09T03:57:36;6.10;99.90
9509;DHT22;4792;50.088;8.122;2023-01-09T04:00:06;6.10;99.90
9509;DHT22;4792;50.088;8.122;2023-01-09T04:02:35;6.10;99.90
9509;DHT22;4792;50.088;8.122;2023-01-09T04:05:04;6.10;99.90
9509;DHT22;4792;50.088;8.122;2023-01-09T04:07:33;6.10;99.90
9509;DHT22;4792;50.088;8.122;2023-01-09T04:10:02;6.10;99.90
9509;DHT22;4792;50.088;8.122;2023-01-09T04:12:30;6.00;99.90
9509;DHT22;4792;50.088;8.122;2023-01-09T04:14:58;6.00;99.90
9509;DHT22;4792;50.088;8.122;2023-01-09T04:17:26;6.00;99.90
9509;DHT22;4792;50.088;8.122;2023-01-09T04:19:54;6.00;99.90
9509;DHT22;4792;50.088;8.122;2023-01-09T04:22:22;6.00;99.90
9509;DHT22;4792;50.088;8.122;2023-01-09T04:24:52;5.90;99.90
9509;DHT22;4792;50.088;8.122;2023-01-09T04:27:20;5.90;99.90
9509;DHT22;4792;50.088;8.122;2023-01-09T04:29:48;6.00;99.90
9509;DHT22;4792;50.088;8.122;2023-01-09T04:32:16;6.00;99.90
9509;DHT22;4792;50.088;8.122;2023-01-09T04:34:44;6.00;99.90
9509;DHT22;4792;50.088;8.122;2023-01-09T04:37:12;6.00;99.90
9509;DHT22;4792;50.088;8.122;2023-01-09T04:39:41;6.00;99.90
9509;DHT22;4792;50.088;8.122;2023-01-09T04:42:11;6.00;99.90
9509;DHT22;4792;50.088;8.122;2023-01-09T04:44:39;6.00;99.90
9509;DHT22;4792;50.088;8.122;2023-01-09T04:47:07;5.90;99.90
9509;DHT22;4792;50.088;8.122;2023-01-09T04:49:36;5.90;99.90
9509;DHT22;4792;50.088;8.122;2023-01-09T04:52:04;6.00;99.90
9509;DHT22;4792;50.088;8.122;2023-01-09T04:54:32;5.90;99.90
9509;DHT22;4792;50.088;8.122;2023-01-09T04:57:00;6.00;99.90
9509;DHT22;4792;50.088;8.122;2023-01-09T04:59:30;6.00;99.90
9509;DHT22;4792;50.088;8.122;2023-01-09T05:01:58;6.00;99.90
9509;DHT22;4792;50.088;8.122;2023-01-09T05:04:26;6.00;99.90
9509;DHT22;4792;50.088;8.122;2023-01-09T05:06:55;6.00;99.90
9509;DHT22;4792;50.088;8.122;2023-01-09T05:09:23;6.00;99.90
9509;DHT22;4792;50.088;8.122;2023-01-09T05:11:51;6.00;99.90
9509;DHT22;4792;50.088;8.122;2023-01-09T05:14:20;5.90;99.90
9509;DHT22;4792;50.088;8.122;2023-01-09T05:16:49;5.90;99.90
9509;DHT22;4792;50.088;8.122;2023-01-09T05:19:17;5.90;99.90
9509;DHT22;4792;50.088;8.122;2023-01-09T05:21:45;5.90;99.90
9509;DHT22;4792;50.088;8.122;2023-01-09T05:24:14;5.80;99.90
9509;DHT22;4792;50.088;8.122;2023-01-09T05:26:42;5.80;99.90
9509;DHT22;4792;50.088;8.122;2023-01-09T05:29:10;5.80;99.90
9509;DHT22;4792;50.088;8.122;2023-01-09T05:31:38;5.70;99.90
9509;DHT22;4792;50.088;8.122;2023-01-09T05:34:07;5.60;99.90
9509;DHT22;4792;50.088;8.122;2023-01-09T05:36:35;5.60;99.90
9509;DHT22;4792;50.088;8.122;2023-01-09T05:39:03;5.60;99.90
9509;DHT22;4792;50.088;8.122;2023-01-09T05:41:32;5.50;99.90
9509;DHT22;4792;50.088;8.122;2023-01-09T05:44:00;5.60;99.90
9509;DHT22;4792;50.088;8.122;2023-01-09T05:46:28;5.60;99.90
9509;DHT22;4792;50.088;8.122;2023-01-09T05:48:56;5.50;99.90
9509;DHT22;4792;50.088;8.122;2023-01-09T05:51:25;5.40;99.90
9509;DHT22;4792;50.088;8.122;2023-01-09T05:53:53;5.40;99.90
9509;DHT22;4792;50.088;8.122;2023-01-09T05:56:22;5.40;99.90
9509;DHT22;4792;50.088;8.122;2023-01-09T05:58:50;5.50;99.90
9509;DHT22;4792;50.088;8.122;2023-01-09T06:01:18;5.50;99.90
9509;DHT22;4792;50.088;8.122;2023-01-09T06:03:49;5.50;99.90
9509;DHT22;4792;50.088;8.122;2023-01-09T06:06:17;5.40;99.90
9509;DHT22;4792;50.088;8.122;2023-01-09T06:08:47;5.30;99.90
9509;DHT22;4792;50.088;8.122;2023-01-09T06:11:15;5.30;99.90
9509;DHT22;4792;50.088;8.122;2023-01-09T06:13:43;5.30;99.90
9509;DHT22;4792;50.088;8.122;2023-01-09T06:16:11;5.30;99.90
9509;DHT22;4792;50.088;8.122;2023-01-09T06:18:40;5.30;99.90
9509;DHT22;4792;50.088;8.122;2023-01-09T06:21:08;5.30;99.90
9509;DHT22;4792;50.088;8.122;2023-01-09T06:23:36;5.20;99.90
9509;DHT22;4792;50.088;8.122;2023-01-09T06:26:05;5.20;99.90
9509;DHT22;4792;50.088;8.122;2023-01-09T06:28:33;5.30;99.90
9509;DHT22;4792;50.088;8.122;2023-01-09T06:31:01;5.30;99.90
9509;DHT22;4792;50.088;8.122;2023-01-09T06:33:30;5.20;99.90
9509;DHT22;4792;50.088;8.122;2023-01-09T06:35:58;5.30;99.90
9509;DHT22;4792;50.088;8.122;2023-01-09T06:38:26;5.20;99.90
9509;DHT22;4792;50.088;8.122;2023-01-09T06:40:54;5.20;99.90
9509;DHT22;4792;50.088;8.122;2023-01-09T06:43:24;5.20;99.90
9509;DHT22;4792;50.088;8.122;2023-01-09T06:45:52;5.20;99.90
9509;DHT22;4792;50.088;8.122;2023-01-09T06:48:20;5.20;99.90
9509;DHT22;4792;50.088;8.122;2023-01-09T06:50:50;5.20;99.90
9509;DHT22;4792;50.088;8.122;2023-01-09T06:53:19;5.20;99.90
9509;DHT22;4792;50.088;8.122;2023-01-09T06:55:48;5.20;99.90
9509;DHT22;4792;50.088;8.122;2023-01-09T06:58:16;5.10;99.90
9509;DHT22;4792;50.088;8.122;2023-01-09T07:00:46;5.20;99.90
9509;DHT22;4792;50.088;8.122;2023-01-09T07:03:15;5.10;99.90
9509;DHT22;4792;50.088;8.122;2023-01-09T07:05:45;5.10;99.90
9509;DHT22;4792;50.088;8.122;2023-01-09T07:08:13;5.10;99.90
9509;DHT22;4792;50.088;8.122;2023-01-09T07:10:42;5.10;99.90
9509;DHT22;4792;50.088;8.122;2023-01-09T07:13:10;5.10;99.90
9509;DHT22;4792;50.088;8.122;2023-01-09T07:15:38;5.10;99.90
9509;DHT22;4792;50.088;8.122;2023-01-09T07:18:07;5.10;99.90
9509;DHT22;4792;50.088;8.122;2023-01-09T07:20:37;5.10;99.90
9509;DHT22;4792;50.088;8.122;2023-01-09T07:23:07;5.10;99.90
9509;DHT22;4792;50.088;8.122;2023-01-09T07:25:35;5.10;99.90
9509;DHT22;4792;50.088;8.122;2023-01-09T07:28:04;5.10;99.90
9509;DHT22;4792;50.088;8.122;2023-01-09T07:30:32;5.10;99.90
9509;DHT22;4792;50.088;8.122;2023-01-09T07:33:00;5.10;99.90
9509;DHT22;4792;50.088;8.122;2023-01-09T07:35:31;5.10;99.90
9509;DHT22;4792;50.088;8.122;2023-01-09T07:37:59;5.10;99.90
9509;DHT22;4792;50.088;8.122;2023-01-09T07:40:27;5.10;99.90
9509;DHT22;4792;50.088;8.122;2023-01-09T07:42:55;5.10;99.90
9509;DHT22;4792;50.088;8.122;2023-01-09T07:45:23;5.10;99.90
9509;DHT22;4792;50.088;8.122;2023-01-09T07:47:51;5.10;99.90
9509;DHT22;4792;50.088;8.122;2023-01-09T07:50:19;5.00;99.90
9509;DHT22;4792;50.088;8.122;2023-01-09T07:52:49;5.00;99.90
9509;DHT22;4792;50.088;8.122;2023-01-09T07:55:17;5.00;99.90
9509;DHT22;4792;50.088;8.122;2023-01-09T07:57:47;5.10;99.90
9509;DHT22;4792;50.088;8.122;2023-01-09T08:00:16;5.00;99.90
9509;DHT22;4792;50.088;8.122;2023-01-09T08:02:44;5.00;99.90
9509;DHT22;4792;50.088;8.122;2023-01-09T08:05:13;5.00;99.90
9509;DHT22;4792;50.088;8.122;2023-01-09T08:07:42;5.00;99.90
9509;DHT22;4792;50.088;8.122;2023-01-09T08:10:11;5.00;99.90
9509;DHT22;4792;50.088;8.122;2023-01-09T08:12:41;5.00;99.90
9509;DHT22;4792;50.088;8.122;2023-01-09T08:15:10;5.10;99.90
9509;DHT22;4792;50.088;8.122;2023-01-09T08:17:40;5.10;99.90
9509;DHT22;4792;50.088;8.122;2023-01-09T08:20:09;5.00;99.90
9509;DHT22;4792;50.088;8.122;2023-01-09T08:22:40;5.00;99.90
9509;DHT22;4792;50.088;8.122;2023-01-09T08:25:11;5.00;99.90
9509;DHT22;4792;50.088;8.122;2023-01-09T08:27:40;5.00;99.90
9509;DHT22;4792;50.088;8.122;2023-01-09T08:30:09;5.00;99.90
9509;DHT22;4792;50.088;8.122;2023-01-09T08:32:38;5.00;99.90
9509;DHT22;4792;50.088;8.122;2023-01-09T08:35:07;5.00;99.90
9509;DHT22;4792;50.088;8.122;2023-01-09T08:37:36;5.00;99.90
9509;DHT22;4792;50.088;8.122;2023-01-09T08:40:05;5.00;99.90
9509;DHT22;4792;50.088;8.122;2023-01-09T08:42:35;5.00;99.90
9509;DHT22;4792;50.088;8.122;2023-01-09T08:45:20;5.00;99.90
9509;DHT22;4792;50.088;8.122;2023-01-09T08:48:06;5.00;99.90
9509;DHT22;4792;50.088;8.122;2023-01-09T08:50:34;5.10;99.90
9509;DHT22;4792;50.088;8.122;2023-01-09T08:53:02;5.00;99.90
9509;DHT22;4792;50.088;8.122;2023-01-09T08:55:30;5.10;99.90
9509;DHT22;4792;50.088;8.122;2023-01-09T08:57:59;5.10;99.90
9509;DHT22;4792;50.088;8.122;2023-01-09T09:00:28;5.10;99.90
9509;DHT22;4792;50.088;8.122;2023-01-09T09:02:58;5.10;99.90
9509;DHT22;4792;50.088;8.122;2023-01-09T09:05:28;5.20;99.90
9509;DHT22;4792;50.088;8.122;2023-01-09T09:07:57;5.20;99.90
9509;DHT22;4792;50.088;8.122;2023-01-09T09:10:27;5.10;99.90
9509;DHT22;4792;50.088;8.122;2023-01-09T09:12:56;5.20;99.90
9509;DHT22;4792;50.088;8.122;2023-01-09T09:15:27;5.20;99.90
9509;DHT22;4792;50.088;8.122;2023-01-09T09:17:56;5.20;99.90
9509;DHT22;4792;50.088;8.122;2023-01-09T09:20:27;5.20;99.90
9509;DHT22;4792;50.088;8.122;2023-01-09T09:22:55;5.30;99.90
9509;DHT22;4792;50.088;8.122;2023-01-09T09:25:23;5.30;99.90
9509;DHT22;4792;50.088;8.122;2023-01-09T09:27:51;5.30;99.90
9509;DHT22;4792;50.088;8.122;2023-01-09T09:30:22;5.30;99.90
9509;DHT22;4792;50.088;8.122;2023-01-09T09:32:51;5.30;99.90
9509;DHT22;4792;50.088;8.122;2023-01-09T09:35:20;5.30;99.90
9509;DHT22;4792;50.088;8.122;2023-01-09T09:37:56;5.40;99.90
9509;DHT22;4792;50.088;8.122;2023-01-09T09:40:37;5.30;99.90
9509;DHT22;4792;50.088;8.122;2023-01-09T09:43:36;5.30;99.90
9509;DHT22;4792;50.088;8.122;2023-01-09T09:46:29;5.40;99.90
9509;DHT22;4792;50.088;8.122;2023-01-09T09:49:04;5.50;99.90
9509;DHT22;4792;50.088;8.122;2023-01-09T09:51:49;5.50;99.90
9509;DHT22;4792;50.088;8.122;2023-01-09T09:54:26;5.50;99.90
9509;DHT22;4792;50.088;8.122;2023-01-09T09:56:57;5.60;99.90
9509;DHT22;4792;50.088;8.122;2023-01-09T09:59:28;5.60;99.90
9509;DHT22;4792;50.088;8.122;2023-01-09T10:02:00;5.60;99.90
9509;DHT22;4792;50.088;8.122;2023-01-09T10:04:32;5.60;99.90
9509;DHT22;4792;50.088;8.122;2023-01-09T10:07:04;5.60;99.90
9509;DHT22;4792;50.088;8.122;2023-01-09T10:09:41;5.60;99.90
9509;DHT22;4792;50.088;8.122;2023-01-09T10:12:21;5.50;99.90
9509;DHT22;4792;50.088;8.122;2023-01-09T10:14:51;5.50;99.90
9509;DHT22;4792;50.088;8.122;2023-01-09T10:17:28;5.50;99.90
9509;DHT22;4792;50.088;8.122;2023-01-09T10:20:19;5.50;99.90
9509;DHT22;4792;50.088;8.122;2023-01-09T10:22:54;5.50;99.90
9509;DHT22;4792;50.088;8.122;2023-01-09T10:25:33;5.50;99.90
9509;DHT22;4792;50.088;8.122;2023-01-09T10:28:16;5.50;99.90
9509;DHT22;4792;50.088;8.122;2023-01-09T10:30:50;5.50;99.90
9509;DHT22;4792;50.088;8.122;2023-01-09T10:33:29;5.50;99.90
9509;DHT22;4792;50.088;8.122;2023-01-09T10:38:56;5.50;99.90
9509;DHT22;4792;50.088;8.122;2023-01-09T10:41:29;5.50;99.90
9509;DHT22;4792;50.088;8.122;2023-01-09T10:44:02;5.50;99.90
9509;DHT22;4792;50.088;8.122;2023-01-09T10:46:36;5.50;99.90
9509;DHT22;4792;50.088;8.122;2023-01-09T10:49:11;5.50;99.90
9509;DHT22;4792;50.088;8.122;2023-01-09T10:51:45;5.50;99.90
9509;DHT22;4792;50.088;8.122;2023-01-09T10:54:16;5.50;99.90
9509;DHT22;4792;50.088;8.122;2023-01-09T10:56:52;5.50;99.90
9509;DHT22;4792;50.088;8.122;2023-01-09T10:59:21;5.50;99.90
9509;DHT22;4792;50.088;8.122;2023-01-09T11:01:50;5.50;99.90
9509;DHT22;4792;50.088;8.122;2023-01-09T11:04:22;5.50;99.90
9509;DHT22;4792;50.088;8.122;2023-01-09T11:06:57;5.60;99.90
9509;DHT22;4792;50.088;8.122;2023-01-09T11:09:26;5.60;99.90
9509;DHT22;4792;50.088;8.122;2023-01-09T11:11:55;5.60;99.90
9509;DHT22;4792;50.088;8.122;2023-01-09T11:14:24;5.60;99.90
9509;DHT22;4792;50.088;8.122;2023-01-09T11:16:58;5.60;99.90
9509;DHT22;4792;50.088;8.122;2023-01-09T11:19:27;5.60;99.90
9509;DHT22;4792;50.088;8.122;2023-01-09T11:22:07;5.70;99.90
9509;DHT22;4792;50.088;8.122;2023-01-09T11:24:35;5.70;99.90
9509;DHT22;4792;50.088;8.122;2023-01-09T11:27:18;5.70;99.90
9509;DHT22;4792;50.088;8.122;2023-01-09T11:30:13;5.70;99.90
9509;DHT22;4792;50.088;8.122;2023-01-09T11:32:42;5.70;99.90
9509;DHT22;4792;50.088;8.122;2023-01-09T11:35:18;5.70;99.90
9509;DHT22;4792;50.088;8.122;2023-01-09T11:37:55;5.70;99.90
9509;DHT22;4792;50.088;8.122;2023-01-09T11:40:25;5.70;99.90
9509;DHT22;4792;50.088;8.122;2023-01-09T11:43:07;5.80;99.90
9509;DHT22;4792;50.088;8.122;2023-01-09T11:45:43;5.80;99.90
9509;DHT22;4792;50.088;8.122;2023-01-09T11:48:37;5.80;99.90
9509;DHT22;4792;50.088;8.122;2023-01-09T11:51:19;5.80;99.90
9509;DHT22;4792;50.088;8.122;2023-01-09T11:53:54;5.80;99.90
9509;DHT22;4792;50.088;8.122;2023-01-09T11:56:24;5.80;99.90
9509;DHT22;4792;50.088;8.122;2023-01-09T11:58:53;5.80;99.90
9509;DHT22;4792;50.088;8.122;2023-01-09T12:01:34;5.80;99.90
9509;DHT22;4792;50.088;8.122;2023-01-09T12:04:19;5.90;99.90
9509;DHT22;4792;50.088;8.122;2023-01-09T12:07:10;5.80;99.90
9509;DHT22;4792;50.088;8.122;2023-01-09T12:09:49;5.90;99.90
9509;DHT22;4792;50.088;8.122;2023-01-09T12:12:26;5.90;99.90
9509;DHT22;4792;50.088;8.122;2023-01-09T12:15:06;6.00;99.90
9509;DHT22;4792;50.088;8.122;2023-01-09T12:17:52;6.00;99.90
9509;DHT22;4792;50.088;8.122;2023-01-09T12:20:46;6.00;99.90
9509;DHT22;4792;50.088;8.122;2023-01-09T12:23:27;6.00;99.90
9509;DHT22;4792;50.088;8.122;2023-01-09T12:26:12;6.00;99.90
9509;DHT22;4792;50.088;8.122;2023-01-09T12:29:11;6.00;99.90
9509;DHT22;4792;50.088;8.122;2023-01-09T12:31:58;6.00;99.90
9509;DHT22;4792;50.088;8.122;2023-01-09T12:34:40;6.00;99.90
9509;DHT22;4792;50.088;8.122;2023-01-09T12:40:16;6.00;99.90
9509;DHT22;4792;50.088;8.122;2023-01-09T12:42:53;6.00;99.90
9509;DHT22;4792;50.088;8.122;2023-01-09T12:45:37;6.00;99.90
9509;DHT22;4792;50.088;8.122;2023-01-09T12:48:17;6.00;99.90
9509;DHT22;4792;50.088;8.122;2023-01-09T12:51:06;6.00;99.90
9509;DHT22;4792;50.088;8.122;2023-01-09T12:53:39;6.00;99.90
9509;DHT22;4792;50.088;8.122;2023-01-09T12:56:13;6.00;99.90
9509;DHT22;4792;50.088;8.122;2023-01-09T12:58:46;6.00;99.90
9509;DHT22;4792;50.088;8.122;2023-01-09T13:01:18;6.00;99.90
9509;DHT22;4792;50.088;8.122;2023-01-09T13:03:53;6.00;99.90
9509;DHT22;4792;50.088;8.122;2023-01-09T13:06:26;6.00;99.90
9509;DHT22;4792;50.088;8.122;2023-01-09T13:09:05;6.00;99.90
9509;DHT22;4792;50.088;8.122;2023-01-09T13:11:37;6.00;99.90
9509;DHT22;4792;50.088;8.122;2023-01-09T13:14:13;6.00;99.90
9509;DHT22;4792;50.088;8.122;2023-01-09T13:16:45;6.00;99.90
9509;DHT22;4792;50.088;8.122;2023-01-09T13:19:19;6.00;99.90
9509;DHT22;4792;50.088;8.122;2023-01-09T13:21:50;6.00;99.90
9509;DHT22;4792;50.088;8.122;2023-01-09T13:24:21;6.10;99.90
9509;DHT22;4792;50.088;8.122;2023-01-09T13:26:55;6.10;99.90
9509;DHT22;4792;50.088;8.122;2023-01-09T13:29:27;6.10;99.90
9509;DHT22;4792;50.088;8.122;2023-01-09T13:32:06;6.20;99.90
9509;DHT22;4792;50.088;8.122;2023-01-09T13:34:39;6.20;99.90
9509;DHT22;4792;50.088;8.122;2023-01-09T13:37:19;6.30;99.90
9509;DHT22;4792;50.088;8.122;2023-01-09T13:39:54;6.30;99.90
9509;DHT22;4792;50.088;8.122;2023-01-09T13:42:23;6.30;99.90
9509;DHT22;4792;50.088;8.122;2023-01-09T13:45:19;6.30;99.90
9509;DHT22;4792;50.088;8.122;2023-01-09T13:51:36;6.40;99.90
9509;DHT22;4792;50.088;8.122;2023-01-09T13:57:26;7.60;99.90
9509;DHT22;4792;50.088;8.122;2023-01-09T13:59:58;8.40;99.90
9509;DHT22;4792;50.088;8.122;2023-01-09T14:02:57;8.60;99.90
9509;DHT22;4792;50.088;8.122;2023-01-09T14:06:01;8.30;99.90
9509;DHT22;4792;50.088;8.122;2023-01-09T14:08:31;8.20;99.90
9509;DHT22;4792;50.088;8.122;2023-01-09T14:11:01;8.60;99.90
9509;DHT22;4792;50.088;8.122;2023-01-09T14:13:32;9.40;99.90
9509;DHT22;4792;50.088;8.122;2023-01-09T14:16:03;10.10;99.90
9509;DHT22;4792;50.088;8.122;2023-01-09T14:18:36;9.80;99.90
9509;DHT22;4792;50.088;8.122;2023-01-09T14:21:06;9.50;99.90
9509;DHT22;4792;50.088;8.122;2023-01-09T14:23:38;9.20;99.90
9509;DHT22;4792;50.088;8.122;2023-01-09T14:26:21;8.60;99.90
9509;DHT22;4792;50.088;8.122;2023-01-09T14:28:50;8.30;99.90
9509;DHT22;4792;50.088;8.122;2023-01-09T14:31:28;8.00;99.90
9509;DHT22;4792;50.088;8.122;2023-01-09T14:34:22;7.50;99.90
9509;DHT22;4792;50.088;8.122;2023-01-09T14:36:58;7.20;99.90
9509;DHT22;4792;50.088;8.122;2023-01-09T14:39:29;7.10;99.90
9509;DHT22;4792;50.088;8.122;2023-01-09T14:42:00;7.00;99.90
9509;DHT22;4792;50.088;8.122;2023-01-09T14:44:44;6.90;99.90
9509;DHT22;4792;50.088;8.122;2023-01-09T14:47:17;6.70;99.90
9509;DHT22;4792;50.088;8.122;2023-01-09T14:49:54;6.70;99.90
9509;DHT22;4792;50.088;8.122;2023-01-09T14:52:28;6.60;99.90
9509;DHT22;4792;50.088;8.122;2023-01-09T14:55:00;6.50;99.90
9509;DHT22;4792;50.088;8.122;2023-01-09T14:57:29;6.50;99.90
9509;DHT22;4792;50.088;8.122;2023-01-09T14:59:59;6.50;99.90
9509;DHT22;4792;50.088;8.122;2023-01-09T15:02:29;6.50;99.90
9509;DHT22;4792;50.088;8.122;2023-01-09T15:05:01;6.50;99.90
9509;DHT22;4792;50.088;8.122;2023-01-09T15:07:33;6.50;99.90
9509;DHT22;4792;50.088;8.122;2023-01-09T15:10:10;6.50;99.90
9509;DHT22;4792;50.088;8.122;2023-01-09T15:12:43;6.50;99.90
9509;DHT22;4792;50.088;8.122;2023-01-09T15:15:13;6.50;99.90
9509;DHT22;4792;50.088;8.122;2023-01-09T15:17:43;6.50;99.90
9509;DHT22;4792;50.088;8.122;2023-01-09T15:20:19;6.50;99.90
9509;DHT22;4792;50.088;8.122;2023-01-09T15:22:51;6.50;99.90
9509;DHT22;4792;50.088;8.122;2023-01-09T15:25:24;6.50;99.90
9509;DHT22;4792;50.088;8.122;2023-01-09T15:28:22;6.50;99.90
9509;DHT22;4792;50.088;8.122;2023-01-09T15:30:57;6.50;99.90
9509;DHT22;4792;50.088;8.122;2023-01-09T15:33:26;6.40;99.90
9509;DHT22;4792;50.088;8.122;2023-01-09T15:35:56;6.40;99.90
9509;DHT22;4792;50.088;8.122;2023-01-09T15:38:30;6.40;99.90
9509;DHT22;4792;50.088;8.122;2023-01-09T15:41:03;6.40;99.90
9509;DHT22;4792;50.088;8.122;2023-01-09T15:43:33;6.30;99.90
9509;DHT22;4792;50.088;8.122;2023-01-09T15:46:02;6.20;99.90
9509;DHT22;4792;50.088;8.122;2023-01-09T15:48:31;6.20;99.90
9509;DHT22;4792;50.088;8.122;2023-01-09T15:51:04;6.20;99.90
9509;DHT22;4792;50.088;8.122;2023-01-09T15:53:33;6.10;99.90
9509;DHT22;4792;50.088;8.122;2023-01-09T15:56:12;6.00;99.90
9509;DHT22;4792;50.088;8.122;2023-01-09T15:58:43;6.00;99.90
9509;DHT22;4792;50.088;8.122;2023-01-09T16:01:27;6.00;99.90
9509;DHT22;4792;50.088;8.122;2023-01-09T16:04:03;5.90;99.90
9509;DHT22;4792;50.088;8.122;2023-01-09T16:06:34;5.90;99.90
9509;DHT22;4792;50.088;8.122;2023-01-09T16:09:03;5.90;99.90
9509;DHT22;4792;50.088;8.122;2023-01-09T16:11:45;5.90;99.90
9509;DHT22;4792;50.088;8.122;2023-01-09T16:14:17;5.90;99.90
9509;DHT22;4792;50.088;8.122;2023-01-09T16:16:47;5.80;99.90
9509;DHT22;4792;50.088;8.122;2023-01-09T16:19:31;5.70;99.90
9509;DHT22;4792;50.088;8.122;2023-01-09T16:22:02;5.70;99.90
9509;DHT22;4792;50.088;8.122;2023-01-09T16:24:38;5.60;99.90
9509;DHT22;4792;50.088;8.122;2023-01-09T16:27:20;5.50;99.90
9509;DHT22;4792;50.088;8.122;2023-01-09T16:29:50;5.50;99.90
9509;DHT22;4792;50.088;8.122;2023-01-09T16:32:25;5.50;99.90
9509;DHT22;4792;50.088;8.122;2023-01-09T16:34:55;5.50;99.90
9509;DHT22;4792;50.088;8.122;2023-01-09T16:37:26;5.40;99.90
9509;DHT22;4792;50.088;8.122;2023-01-09T16:40:23;5.40;99.90
9509;DHT22;4792;50.088;8.122;2023-01-09T16:42:53;5.40;99.90
9509;DHT22;4792;50.088;8.122;2023-01-09T16:45:30;5.40;99.90
9509;DHT22;4792;50.088;8.122;2023-01-09T16:47:59;5.30;99.90
9509;DHT22;4792;50.088;8.122;2023-01-09T16:50:28;5.30;99.90
9509;DHT22;4792;50.088;8.122;2023-01-09T16:52:59;5.30;99.90
9509;DHT22;4792;50.088;8.122;2023-01-09T16:55:29;5.20;99.90
9509;DHT22;4792;50.088;8.122;2023-01-09T16:57:58;5.20;99.90
9509;DHT22;4792;50.088;8.122;2023-01-09T17:00:26;5.10;99.90
9509;DHT22;4792;50.088;8.122;2023-01-09T17:02:54;5.00;99.90
9509;DHT22;4792;50.088;8.122;2023-01-09T17:07:52;4.80;99.90
9509;DHT22;4792;50.088;8.122;2023-01-09T17:10:23;4.80;99.90